Startpagina
METAR-TAF:

METAR-TAF

Vliegvelden :

Internationale luchthaven Changi

Singapore, Singapore

breedte: 01-22N, lengte: 103-59E, hoogte: 5 m

Actueel weer

Dit bericht is 17 minuten geleden gemaakt, om 17:30 UTC
Wind 4 kt uit het noordnoordoosten, variërend tussen het noorden en het oostnoordoosten
Temperatuur 27°C
Vochtigheid 84%
Druk 1014 hPa
Zicht 10 km of meer
Weinig wolken op 1800 ft
Gebroken wolken op 35000 ft

METAR: WSSS 201730Z 03004KT 360V060 9999 FEW018 BKN350 27/24 Q1014 NOSIG

Tijdstip: 01:47 (17:47 UTC)

Verwachting

Dit bericht is 47 minuten geleden gemaakt, om 17:00 UTC
Verwachting geldig van 20 om 18 UTC tot 22 om 00 UTC
Wind 10 kt uit het noordoosten
Zicht 10 km of meer
Verspreide wolken op 2000 ft

TAF: WSSS 201700Z 2018/2200 04010KT 9999 SCT020

Waarnemingen en weersverwachtingen van meer dan 4000 vliegvelden (METAR en TAF).

De beschikbare stations zijn de gele en rode punten op de kaart.

Ga met uw muis naar het station om de naam te zien.

Klik dan om waarnemingen en weersverwachtingen te zien.

kaart wijzigen: klik op de groene knoppen met een zwart kruis om in te zoomen, op de groene knop met een streepje om uit te zoomen of op de groene pijlen voor aangrenzende kaarten.


METAR-TAF: